KMHE/MHE METAR and TAF weather

Enter ICAO airport designator
Station Type Date Time Source
KMHE METAR 2020/07/02 17:53 UTC NOAA

KMHE 021753Z AUTO 14012G21KT 10SM CLR 29/21 A3004 RMK AO2 SLP161 T02940211 10294 20222 58005


Station Type Date Time Source
KMHE Decoded METAR 2020/07/02 17:53 UTC NOAA

MITCHELL MUNICIPAL AIRPORT, SD, United States (KMHE) 43-46N 98-02W
Jul 02, 2020 - 01:53 PM EDT / 2020.07.02 1753 UTC
Wind: from the SE (140 degrees) at 14 MPH (12 KT) gusting to 24 MPH (21 KT):0
Visibility: 10 mile(s):0
Sky conditions: clear
Temperature: 84.9 F (29.4 C)
Dew Point: 70.0 F (21.1 C)
Relative Humidity: 61%
Pressure (altimeter): 30.04 in. Hg (1017 hPa)
Pressure tendency: 0.01 inches (0.5 hPa) lower than three hours ago
ob: KMHE 021753Z AUTO 14012G21KT 10SM CLR 29/21 A3004 RMK AO2 SLP161 T02940211 10294 20222 58005
cycle: 18

Station Type Date Time Source
KMHE TAF UTC NOAA

Error!

Example: see airport list